sensor_id;sensor_type;location;lat;lon;timestamp;pressure;altitude;pressure_sealevel;temperature;humidity
74881;BME280;63427;49.654;6.596;2023-07-02T00:02:22;99154.23;;;19.50;33.79
74881;BME280;63427;49.654;6.596;2023-07-02T00:04:47;99150.81;;;19.05;33.58
74881;BME280;63427;49.654;6.596;2023-07-02T00:07:13;99153.19;;;19.26;33.66
74881;BME280;63427;49.654;6.596;2023-07-02T00:09:39;99147.70;;;19.24;34.09
74881;BME280;63427;49.654;6.596;2023-07-02T00:12:04;99147.12;;;19.51;33.82
74881;BME280;63427;49.654;6.596;2023-07-02T00:14:29;99149.59;;;19.71;33.67
74881;BME280;63427;49.654;6.596;2023-07-02T00:16:54;99148.81;;;19.51;33.36
74881;BME280;63427;49.654;6.596;2023-07-02T00:19:19;99147.44;;;19.03;33.49
74881;BME280;63427;49.654;6.596;2023-07-02T00:21:45;99149.31;;;19.19;33.50
74881;BME280;63427;49.654;6.596;2023-07-02T00:24:10;99146.02;;;19.22;33.61
74881;BME280;63427;49.654;6.596;2023-07-02T00:26:36;99144.83;;;19.29;33.66
74881;BME280;63427;49.654;6.596;2023-07-02T00:29:01;99148.59;;;19.27;33.54
74881;BME280;63427;49.654;6.596;2023-07-02T00:31:26;99154.69;;;19.40;33.20
74881;BME280;63427;49.654;6.596;2023-07-02T00:33:57;99156.53;;;19.32;33.49
74881;BME280;63427;49.654;6.596;2023-07-02T00:36:17;99159.72;;;19.24;33.77
74881;BME280;63427;49.654;6.596;2023-07-02T00:38:44;99158.69;;;19.46;33.78
74881;BME280;63427;49.654;6.596;2023-07-02T00:41:08;99158.54;;;19.30;33.80
74881;BME280;63427;49.654;6.596;2023-07-02T00:43:33;99153.01;;;19.14;34.01
74881;BME280;63427;49.654;6.596;2023-07-02T00:45:59;99155.52;;;19.29;33.75
74881;BME280;63427;49.654;6.596;2023-07-02T00:48:24;99152.61;;;19.22;33.74
74881;BME280;63427;49.654;6.596;2023-07-02T00:50:49;99151.94;;;19.29;33.50
74881;BME280;63427;49.654;6.596;2023-07-02T00:53:15;99150.92;;;19.04;33.55
74881;BME280;63427;49.654;6.596;2023-07-02T00:55:40;99151.86;;;19.39;33.49
74881;BME280;63427;49.654;6.596;2023-07-02T00:58:05;99145.90;;;18.99;33.54
74881;BME280;63427;49.654;6.596;2023-07-02T01:00:30;99148.69;;;19.09;33.24
74881;BME280;63427;49.654;6.596;2023-07-02T01:02:56;99155.64;;;19.36;33.56
74881;BME280;63427;49.654;6.596;2023-07-02T01:05:21;99152.28;;;19.12;33.98
74881;BME280;63427;49.654;6.596;2023-07-02T01:07:47;99151.51;;;19.19;34.09
74881;BME280;63427;49.654;6.596;2023-07-02T01:10:12;99149.73;;;19.06;34.02
74881;BME280;63427;49.654;6.596;2023-07-02T01:12:38;99153.92;;;19.10;34.12
74881;BME280;63427;49.654;6.596;2023-07-02T01:15:05;99151.19;;;19.29;34.09
74881;BME280;63427;49.654;6.596;2023-07-02T01:17:29;99155.58;;;18.74;34.33
74881;BME280;63427;49.654;6.596;2023-07-02T01:19:55;99154.67;;;18.91;34.44
74881;BME280;63427;49.654;6.596;2023-07-02T01:22:20;99155.15;;;18.68;34.68
74881;BME280;63427;49.654;6.596;2023-07-02T01:24:45;99162.01;;;18.69;34.61
74881;BME280;63427;49.654;6.596;2023-07-02T01:27:11;99161.21;;;18.90;35.33
74881;BME280;63427;49.654;6.596;2023-07-02T01:29:36;99161.06;;;18.61;35.34
74881;BME280;63427;49.654;6.596;2023-07-02T01:32:02;99161.64;;;18.68;35.78
74881;BME280;63427;49.654;6.596;2023-07-02T01:34:27;99160.98;;;18.58;35.64
74881;BME280;63427;49.654;6.596;2023-07-02T01:36:52;99165.49;;;18.13;36.30
74881;BME280;63427;49.654;6.596;2023-07-02T01:39:17;99167.12;;;18.76;36.04
74881;BME280;63427;49.654;6.596;2023-07-02T01:41:45;99164.94;;;18.47;36.24
74881;BME280;63427;49.654;6.596;2023-07-02T01:44:09;99169.09;;;18.48;36.09
74881;BME280;63427;49.654;6.596;2023-07-02T01:46:34;99167.41;;;18.29;36.66
74881;BME280;63427;49.654;6.596;2023-07-02T01:48:59;99163.21;;;18.23;36.64
74881;BME280;63427;49.654;6.596;2023-07-02T01:51:24;99169.37;;;18.21;36.43
74881;BME280;63427;49.654;6.596;2023-07-02T01:53:50;99172.25;;;18.06;36.99
74881;BME280;63427;49.654;6.596;2023-07-02T01:56:15;99171.08;;;18.20;37.47
74881;BME280;63427;49.654;6.596;2023-07-02T01:58:41;99168.75;;;17.95;37.37
74881;BME280;63427;49.654;6.596;2023-07-02T02:01:06;99170.78;;;17.93;37.24
74881;BME280;63427;49.654;6.596;2023-07-02T02:03:32;99170.76;;;18.31;37.08
74881;BME280;63427;49.654;6.596;2023-07-02T02:05:58;99169.21;;;17.98;36.86
74881;BME280;63427;49.654;6.596;2023-07-02T02:08:23;99172.66;;;18.30;37.03
74881;BME280;63427;49.654;6.596;2023-07-02T02:10:49;99172.10;;;17.16;38.41
74881;BME280;63427;49.654;6.596;2023-07-02T02:13:14;99177.47;;;17.46;38.17
74881;BME280;63427;49.654;6.596;2023-07-02T02:15:40;99175.63;;;17.96;37.55
74881;BME280;63427;49.654;6.596;2023-07-02T02:18:05;99176.84;;;17.66;37.74
74881;BME280;63427;49.654;6.596;2023-07-02T02:20:30;99180.76;;;17.81;38.21
74881;BME280;63427;49.654;6.596;2023-07-02T02:22:55;99178.65;;;17.71;37.90
74881;BME280;63427;49.654;6.596;2023-07-02T02:25:20;99177.62;;;17.61;38.16
74881;BME280;63427;49.654;6.596;2023-07-02T02:27:46;99178.85;;;17.70;37.90
74881;BME280;63427;49.654;6.596;2023-07-02T02:30:11;99174.99;;;17.62;38.06
74881;BME280;63427;49.654;6.596;2023-07-02T02:32:36;99176.76;;;17.57;38.25
74881;BME280;63427;49.654;6.596;2023-07-02T02:35:01;99174.97;;;17.58;38.35
74881;BME280;63427;49.654;6.596;2023-07-02T02:37:27;99170.56;;;17.64;38.05
74881;BME280;63427;49.654;6.596;2023-07-02T02:39:52;99170.47;;;17.19;38.82
74881;BME280;63427;49.654;6.596;2023-07-02T02:42:17;99163.97;;;17.24;38.72
74881;BME280;63427;49.654;6.596;2023-07-02T02:44:43;99163.53;;;17.41;38.58
74881;BME280;63427;49.654;6.596;2023-07-02T02:47:08;99161.23;;;17.31;38.80
74881;BME280;63427;49.654;6.596;2023-07-02T02:49:33;99162.25;;;17.45;38.15
74881;BME280;63427;49.654;6.596;2023-07-02T02:51:59;99158.53;;;17.47;38.33
74881;BME280;63427;49.654;6.596;2023-07-02T02:54:24;99162.43;;;17.36;38.54
74881;BME280;63427;49.654;6.596;2023-07-02T02:56:49;99158.55;;;17.53;38.57
74881;BME280;63427;49.654;6.596;2023-07-02T02:59:14;99156.86;;;17.39;38.50
74881;BME280;63427;49.654;6.596;2023-07-02T03:01:40;99156.61;;;17.60;38.14
74881;BME280;63427;49.654;6.596;2023-07-02T03:04:05;99156.46;;;17.65;38.20
74881;BME280;63427;49.654;6.596;2023-07-02T03:06:31;99160.78;;;17.52;38.25
74881;BME280;63427;49.654;6.596;2023-07-02T03:08:55;99157.78;;;17.61;38.00
74881;BME280;63427;49.654;6.596;2023-07-02T03:11:21;99163.82;;;17.54;38.35
74881;BME280;63427;49.654;6.596;2023-07-02T03:13:46;99165.78;;;17.58;38.11
74881;BME280;63427;49.654;6.596;2023-07-02T03:16:11;99161.37;;;17.49;37.81
74881;BME280;63427;49.654;6.596;2023-07-02T03:18:37;99161.17;;;17.31;38.55
74881;BME280;63427;49.654;6.596;2023-07-02T03:21:03;99162.49;;;17.56;38.28
74881;BME280;63427;49.654;6.596;2023-07-02T03:23:28;99160.74;;;17.36;38.69
74881;BME280;63427;49.654;6.596;2023-07-02T03:25:53;99162.55;;;16.91;39.62
74881;BME280;63427;49.654;6.596;2023-07-02T03:28:18;99164.34;;;17.19;38.63
74881;BME280;63427;49.654;6.596;2023-07-02T03:30:44;99169.37;;;17.28;38.78
74881;BME280;63427;49.654;6.596;2023-07-02T03:33:09;99171.54;;;17.42;38.54
74881;BME280;63427;49.654;6.596;2023-07-02T03:35:35;99174.28;;;17.65;38.03
74881;BME280;63427;49.654;6.596;2023-07-02T03:38:00;99169.88;;;17.00;38.40
74881;BME280;63427;49.654;6.596;2023-07-02T03:40:25;99174.26;;;17.59;38.52
74881;BME280;63427;49.654;6.596;2023-07-02T03:42:51;99172.61;;;17.61;37.86
74881;BME280;63427;49.654;6.596;2023-07-02T03:45:16;99179.13;;;17.73;38.04
74881;BME280;63427;49.654;6.596;2023-07-02T03:47:41;99179.10;;;17.76;38.09
74881;BME280;63427;49.654;6.596;2023-07-02T03:50:08;99179.52;;;17.70;37.66
74881;BME280;63427;49.654;6.596;2023-07-02T03:52:32;99186.37;;;17.59;38.28
74881;BME280;63427;49.654;6.596;2023-07-02T03:54:57;99191.44;;;17.43;38.60
74881;BME280;63427;49.654;6.596;2023-07-02T03:57:22;99191.29;;;17.35;38.97
74881;BME280;63427;49.654;6.596;2023-07-02T03:59:47;99194.78;;;17.45;38.66
74881;BME280;63427;49.654;6.596;2023-07-02T04:02:13;99196.21;;;17.37;38.96
74881;BME280;63427;49.654;6.596;2023-07-02T04:04:38;99201.11;;;17.35;38.87
74881;BME280;63427;49.654;6.596;2023-07-02T04:07:03;99206.76;;;16.92;39.97
74881;BME280;63427;49.654;6.596;2023-07-02T04:09:28;99210.10;;;17.07;39.53
74881;BME280;63427;49.654;6.596;2023-07-02T04:11:53;99211.22;;;16.92;39.58
74881;BME280;63427;49.654;6.596;2023-07-02T04:14:18;99216.20;;;17.03;39.96
74881;BME280;63427;49.654;6.596;2023-07-02T04:16:44;99215.02;;;17.09;39.36
74881;BME280;63427;49.654;6.596;2023-07-02T04:19:09;99219.26;;;17.11;39.50
74881;BME280;63427;49.654;6.596;2023-07-02T04:21:34;99223.90;;;17.05;39.93
74881;BME280;63427;49.654;6.596;2023-07-02T04:24:00;99223.61;;;16.67;40.47
74881;BME280;63427;49.654;6.596;2023-07-02T04:26:25;99227.04;;;16.98;39.85
74881;BME280;63427;49.654;6.596;2023-07-02T04:28:51;99234.97;;;16.79;41.21
74881;BME280;63427;49.654;6.596;2023-07-02T04:31:16;99232.97;;;16.94;40.54
74881;BME280;63427;49.654;6.596;2023-07-02T04:33:42;99233.51;;;17.15;40.65
74881;BME280;63427;49.654;6.596;2023-07-02T04:36:08;99237.56;;;16.82;40.25
74881;BME280;63427;49.654;6.596;2023-07-02T04:38:33;99238.88;;;17.18;40.28
74881;BME280;63427;49.654;6.596;2023-07-02T04:40:58;99236.75;;;17.09;40.47
74881;BME280;63427;49.654;6.596;2023-07-02T04:43:24;99236.47;;;17.10;40.37
74881;BME280;63427;49.654;6.596;2023-07-02T04:45:50;99241.57;;;17.05;39.93
74881;BME280;63427;49.654;6.596;2023-07-02T04:48:15;99241.55;;;16.90;40.31
74881;BME280;63427;49.654;6.596;2023-07-02T04:50:42;99245.69;;;16.84;40.23
74881;BME280;63427;49.654;6.596;2023-07-02T04:53:06;99248.91;;;16.87;40.61
74881;BME280;63427;49.654;6.596;2023-07-02T04:55:32;99249.88;;;17.11;40.11
74881;BME280;63427;49.654;6.596;2023-07-02T04:57:57;99250.24;;;17.08;39.90
74881;BME280;63427;49.654;6.596;2023-07-02T05:00:22;99252.72;;;17.31;39.85
74881;BME280;63427;49.654;6.596;2023-07-02T05:02:48;99254.64;;;16.98;40.41
74881;BME280;63427;49.654;6.596;2023-07-02T05:05:13;99253.09;;;16.99;40.47
74881;BME280;63427;49.654;6.596;2023-07-02T05:07:40;99258.98;;;17.23;39.91
74881;BME280;63427;49.654;6.596;2023-07-02T05:10:05;99261.47;;;17.30;39.50
74881;BME280;63427;49.654;6.596;2023-07-02T05:12:30;99264.31;;;17.37;39.84
74881;BME280;63427;49.654;6.596;2023-07-02T05:14:55;99262.59;;;17.66;39.31
74881;BME280;63427;49.654;6.596;2023-07-02T05:17:20;99270.52;;;17.46;40.01
74881;BME280;63427;49.654;6.596;2023-07-02T05:19:45;99266.36;;;17.82;40.00
74881;BME280;63427;49.654;6.596;2023-07-02T05:22:11;99269.91;;;15.94;42.97
74881;BME280;63427;49.654;6.596;2023-07-02T05:24:36;99269.02;;;17.24;41.02
74881;BME280;63427;49.654;6.596;2023-07-02T05:27:09;99270.50;;;17.35;40.63
74881;BME280;63427;49.654;6.596;2023-07-02T05:29:26;99272.65;;;17.40;41.01
74881;BME280;63427;49.654;6.596;2023-07-02T05:31:52;99276.27;;;17.46;40.41
74881;BME280;63427;49.654;6.596;2023-07-02T05:34:17;99274.54;;;17.67;40.31
74881;BME280;63427;49.654;6.596;2023-07-02T05:36:43;99272.14;;;17.92;39.85
74881;BME280;63427;49.654;6.596;2023-07-02T05:39:08;99271.25;;;17.95;39.94
74881;BME280;63427;49.654;6.596;2023-07-02T05:41:34;99271.51;;;17.65;39.45
74881;BME280;63427;49.654;6.596;2023-07-02T05:43:59;99273.09;;;18.33;39.12
74881;BME280;63427;49.654;6.596;2023-07-02T05:46:24;99275.94;;;17.96;39.64
74881;BME280;63427;49.654;6.596;2023-07-02T05:48:50;99273.25;;;18.12;38.91
74881;BME280;63427;49.654;6.596;2023-07-02T05:51:20;99275.97;;;18.06;39.68
74881;BME280;63427;49.654;6.596;2023-07-02T05:53:41;99276.51;;;18.18;39.20
74881;BME280;63427;49.654;6.596;2023-07-02T05:56:06;99281.12;;;17.88;40.24
74881;BME280;63427;49.654;6.596;2023-07-02T05:58:32;99276.72;;;17.96;40.12
74881;BME280;63427;49.654;6.596;2023-07-02T06:00:57;99279.47;;;17.51;40.20
74881;BME280;63427;49.654;6.596;2023-07-02T06:03:22;99281.91;;;18.28;39.29
74881;BME280;63427;49.654;6.596;2023-07-02T06:05:48;99282.38;;;18.02;39.64
74881;BME280;63427;49.654;6.596;2023-07-02T06:08:13;99288.92;;;17.53;40.73
74881;BME280;63427;49.654;6.596;2023-07-02T06:10:39;99290.66;;;17.96;39.80
74881;BME280;63427;49.654;6.596;2023-07-02T06:13:05;99286.65;;;17.62;40.36
74881;BME280;63427;49.654;6.596;2023-07-02T06:15:30;99286.79;;;18.37;39.07
74881;BME280;63427;49.654;6.596;2023-07-02T06:17:55;99295.29;;;16.93;41.50
74881;BME280;63427;49.654;6.596;2023-07-02T06:20:21;99296.46;;;18.10;40.22
74881;BME280;63427;49.654;6.596;2023-07-02T06:22:46;99301.24;;;17.50;40.58
74881;BME280;63427;49.654;6.596;2023-07-02T06:25:13;99303.37;;;17.97;39.35
74881;BME280;63427;49.654;6.596;2023-07-02T06:27:37;99310.70;;;18.24;38.88
74881;BME280;63427;49.654;6.596;2023-07-02T06:30:04;99308.75;;;18.25;38.62
74881;BME280;63427;49.654;6.596;2023-07-02T06:32:28;99313.93;;;18.23;38.92
74881;BME280;63427;49.654;6.596;2023-07-02T06:34:53;99320.66;;;18.22;39.26
74881;BME280;63427;49.654;6.596;2023-07-02T06:37:18;99321.40;;;18.47;38.62
74881;BME280;63427;49.654;6.596;2023-07-02T06:39:44;99320.87;;;18.35;39.06
74881;BME280;63427;49.654;6.596;2023-07-02T06:42:09;99323.51;;;18.67;38.28
74881;BME280;63427;49.654;6.596;2023-07-02T06:44:35;99324.38;;;18.58;38.11
74881;BME280;63427;49.654;6.596;2023-07-02T06:47:01;99318.99;;;18.25;38.81
74881;BME280;63427;49.654;6.596;2023-07-02T06:49:26;99315.90;;;18.62;38.32
74881;BME280;63427;49.654;6.596;2023-07-02T06:51:51;99317.32;;;18.77;38.25
74881;BME280;63427;49.654;6.596;2023-07-02T06:54:17;99311.08;;;18.96;37.37
74881;BME280;63427;49.654;6.596;2023-07-02T06:56:42;99312.90;;;19.44;37.30
74881;BME280;63427;49.654;6.596;2023-07-02T06:59:08;99317.65;;;18.74;38.24
74881;BME280;63427;49.654;6.596;2023-07-02T07:01:33;99318.80;;;19.42;36.87
74881;BME280;63427;49.654;6.596;2023-07-02T07:03:58;99315.67;;;19.60;36.31
74881;BME280;63427;49.654;6.596;2023-07-02T07:06:24;99319.00;;;20.23;35.53
74881;BME280;63427;49.654;6.596;2023-07-02T07:08:49;99324.92;;;20.13;35.17
74881;BME280;63427;49.654;6.596;2023-07-02T07:11:36;99321.28;;;20.37;35.03
74881;BME280;63427;49.654;6.596;2023-07-02T07:13:40;99322.84;;;20.34;34.30
74881;BME280;63427;49.654;6.596;2023-07-02T07:16:05;99323.82;;;20.47;34.18
74881;BME280;63427;49.654;6.596;2023-07-02T07:18:31;99326.66;;;20.55;33.90
74881;BME280;63427;49.654;6.596;2023-07-02T07:20:56;99324.68;;;20.41;34.02
74881;BME280;63427;49.654;6.596;2023-07-02T07:23:21;99327.76;;;20.78;33.32
74881;BME280;63427;49.654;6.596;2023-07-02T07:25:47;99318.61;;;21.09;32.68
74881;BME280;63427;49.654;6.596;2023-07-02T07:28:13;99323.97;;;21.72;31.88
74881;BME280;63427;49.654;6.596;2023-07-02T07:30:38;99320.07;;;22.08;31.43
74881;BME280;63427;49.654;6.596;2023-07-02T07:33:06;99318.00;;;22.71;30.56
74881;BME280;63427;49.654;6.596;2023-07-02T07:35:29;99323.93;;;21.45;32.25
74881;BME280;63427;49.654;6.596;2023-07-02T07:37:54;99320.32;;;22.46;30.92
74881;BME280;63427;49.654;6.596;2023-07-02T07:40:20;99321.09;;;23.03;29.57
74881;BME280;63427;49.654;6.596;2023-07-02T07:42:46;99323.54;;;22.67;29.50
74881;BME280;63427;49.654;6.596;2023-07-02T07:45:11;99318.45;;;23.49;28.68
74881;BME280;63427;49.654;6.596;2023-07-02T07:47:36;99322.03;;;23.32;28.33
74881;BME280;63427;49.654;6.596;2023-07-02T07:50:01;99323.19;;;23.85;28.18
74881;BME280;63427;49.654;6.596;2023-07-02T07:52:26;99319.98;;;24.40;27.44
74881;BME280;63427;49.654;6.596;2023-07-02T07:54:52;99322.67;;;23.85;28.03
74881;BME280;63427;49.654;6.596;2023-07-02T07:57:17;99328.19;;;24.19;27.22
74881;BME280;63427;49.654;6.596;2023-07-02T07:59:42;99329.50;;;24.58;27.07
74881;BME280;63427;49.654;6.596;2023-07-02T08:02:07;99327.70;;;24.61;26.61
74881;BME280;63427;49.654;6.596;2023-07-02T08:04:34;99327.34;;;24.49;27.00
74881;BME280;63427;49.654;6.596;2023-07-02T08:06:57;99333.92;;;24.08;26.88
74881;BME280;63427;49.654;6.596;2023-07-02T08:09:24;99332.59;;;23.98;27.48
74881;BME280;63427;49.654;6.596;2023-07-02T08:11:49;99329.29;;;22.95;28.18
74881;BME280;63427;49.654;6.596;2023-07-02T08:14:15;99336.48;;;21.52;29.97
74881;BME280;63427;49.654;6.596;2023-07-02T08:16:40;99331.57;;;23.87;28.13
74881;BME280;63427;49.654;6.596;2023-07-02T08:19:05;99331.26;;;23.54;28.05
74881;BME280;63427;49.654;6.596;2023-07-02T08:21:31;99342.06;;;24.50;27.35
74881;BME280;63427;49.654;6.596;2023-07-02T08:23:56;99348.21;;;23.60;27.37
74881;BME280;63427;49.654;6.596;2023-07-02T08:26:21;99349.55;;;23.80;27.24
74881;BME280;63427;49.654;6.596;2023-07-02T08:28:47;99355.66;;;23.61;27.57
74881;BME280;63427;49.654;6.596;2023-07-02T08:31:12;99353.89;;;23.46;27.72
74881;BME280;63427;49.654;6.596;2023-07-02T08:33:38;99355.60;;;22.73;28.80
74881;BME280;63427;49.654;6.596;2023-07-02T08:36:03;99366.20;;;22.24;29.33
74881;BME280;63427;49.654;6.596;2023-07-02T08:38:29;99361.60;;;22.40;29.07
74881;BME280;63427;49.654;6.596;2023-07-02T08:40:54;99370.50;;;22.94;28.53
74881;BME280;63427;49.654;6.596;2023-07-02T08:43:19;99372.01;;;23.80;28.14
74881;BME280;63427;49.654;6.596;2023-07-02T08:45:50;99373.16;;;23.40;28.22
74881;BME280;63427;49.654;6.596;2023-07-02T08:48:11;99377.82;;;23.08;28.36
74881;BME280;63427;49.654;6.596;2023-07-02T08:50:36;99379.14;;;23.92;27.79
74881;BME280;63427;49.654;6.596;2023-07-02T08:53:01;99380.21;;;23.38;28.46
74881;BME280;63427;49.654;6.596;2023-07-02T08:55:27;99384.81;;;23.74;28.56
74881;BME280;63427;49.654;6.596;2023-07-02T08:57:53;99379.48;;;24.31;28.04
74881;BME280;63427;49.654;6.596;2023-07-02T09:00:18;99386.67;;;24.53;27.59
74881;BME280;63427;49.654;6.596;2023-07-02T09:02:43;99385.93;;;24.73;26.68
74881;BME280;63427;49.654;6.596;2023-07-02T09:05:08;99384.98;;;24.44;26.82
74881;BME280;63427;49.654;6.596;2023-07-02T09:09:59;99385.49;;;22.52;28.56
74881;BME280;63427;49.654;6.596;2023-07-02T09:12:25;99383.11;;;23.80;27.37
74881;BME280;63427;49.654;6.596;2023-07-02T09:14:55;99382.22;;;24.08;27.64
74881;BME280;63427;49.654;6.596;2023-07-02T09:17:16;99385.17;;;24.85;27.17
74881;BME280;63427;49.654;6.596;2023-07-02T09:19:49;99387.07;;;25.24;26.41
74881;BME280;63427;49.654;6.596;2023-07-02T09:22:07;99391.17;;;25.15;26.18
74881;BME280;63427;49.654;6.596;2023-07-02T09:24:32;99385.32;;;25.95;25.10
74881;BME280;63427;49.654;6.596;2023-07-02T09:26:59;99392.29;;;26.33;24.46
74881;BME280;63427;49.654;6.596;2023-07-02T09:29:24;99393.68;;;26.48;24.24
74881;BME280;63427;49.654;6.596;2023-07-02T10:08:14;99405.83;;;20.82;30.22
74881;BME280;63427;49.654;6.596;2023-07-02T10:10:38;99394.27;;;23.15;29.09
74881;BME280;63427;49.654;6.596;2023-07-02T10:13:03;99397.60;;;24.14;26.81
74881;BME280;63427;49.654;6.596;2023-07-02T10:15:30;99393.36;;;25.70;25.34
74881;BME280;63427;49.654;6.596;2023-07-02T10:17:56;99405.02;;;25.91;23.95
74881;BME280;63427;49.654;6.596;2023-07-02T10:20:30;99398.78;;;24.92;23.24
74881;BME280;63427;49.654;6.596;2023-07-02T10:22:46;99397.50;;;27.00;22.49
74881;BME280;63427;49.654;6.596;2023-07-02T10:25:10;99398.12;;;26.77;22.55
74881;BME280;63427;49.654;6.596;2023-07-02T10:27:39;99401.27;;;27.00;22.17
74881;BME280;63427;49.654;6.596;2023-07-02T10:30:02;99397.78;;;27.41;22.24
74881;BME280;63427;49.654;6.596;2023-07-02T10:32:27;99395.30;;;28.36;21.32
74881;BME280;63427;49.654;6.596;2023-07-02T10:34:53;99394.95;;;28.66;21.21
74881;BME280;63427;49.654;6.596;2023-07-02T10:37:17;99392.31;;;28.61;20.57
74881;BME280;63427;49.654;6.596;2023-07-02T10:39:43;99385.49;;;28.77;20.05
74881;BME280;63427;49.654;6.596;2023-07-02T10:42:10;99388.52;;;28.80;19.52
74881;BME280;63427;49.654;6.596;2023-07-02T10:44:39;99388.51;;;29.03;19.50
74881;BME280;63427;49.654;6.596;2023-07-02T10:47:00;99384.98;;;28.89;19.54
74881;BME280;63427;49.654;6.596;2023-07-02T10:49:31;99382.52;;;28.68;20.11
74881;BME280;63427;49.654;6.596;2023-07-02T10:51:57;99383.28;;;29.41;19.71
74881;BME280;63427;49.654;6.596;2023-07-02T10:54:16;99387.07;;;29.48;19.39
74881;BME280;63427;49.654;6.596;2023-07-02T10:56:42;99384.52;;;29.64;19.27
74881;BME280;63427;49.654;6.596;2023-07-02T10:59:07;99374.66;;;29.62;18.64
74881;BME280;63427;49.654;6.596;2023-07-02T11:01:32;99377.45;;;29.82;17.99
74881;BME280;63427;49.654;6.596;2023-07-02T11:03:59;99378.14;;;30.29;17.24
74881;BME280;63427;49.654;6.596;2023-07-02T11:06:24;99375.64;;;28.87;17.47
74881;BME280;63427;49.654;6.596;2023-07-02T11:08:49;99383.31;;;29.33;17.94
74881;BME280;63427;49.654;6.596;2023-07-02T11:11:15;99374.97;;;29.48;18.09
74881;BME280;63427;49.654;6.596;2023-07-02T11:13:44;99372.32;;;29.80;17.48
74881;BME280;63427;49.654;6.596;2023-07-02T11:18:31;99378.02;;;29.85;16.22
74881;BME280;63427;49.654;6.596;2023-07-02T11:20:56;99371.28;;;30.11;16.69
74881;BME280;63427;49.654;6.596;2023-07-02T11:23:24;99370.50;;;30.57;16.41
74881;BME280;63427;49.654;6.596;2023-07-02T11:25:57;99361.04;;;31.05;15.51
74881;BME280;63427;49.654;6.596;2023-07-02T11:28:12;99351.82;;;31.40;14.21
74881;BME280;63427;49.654;6.596;2023-07-02T11:30:45;99367.40;;;31.87;13.97
74881;BME280;63427;49.654;6.596;2023-07-02T11:33:09;99364.60;;;31.88;14.42
74881;BME280;63427;49.654;6.596;2023-07-02T11:35:35;99356.99;;;32.09;14.59
74881;BME280;63427;49.654;6.596;2023-07-02T11:37:55;99364.61;;;30.73;15.53
74881;BME280;63427;49.654;6.596;2023-07-02T11:40:20;99361.27;;;31.49;15.59
74881;BME280;63427;49.654;6.596;2023-07-02T11:42:46;99365.60;;;31.22;14.96
74881;BME280;63427;49.654;6.596;2023-07-02T11:45:11;99368.94;;;31.56;15.65
74881;BME280;63427;49.654;6.596;2023-07-02T11:47:38;99369.15;;;31.52;15.27
74881;BME280;63427;49.654;6.596;2023-07-02T11:50:02;99375.23;;;31.64;14.37
74881;BME280;63427;49.654;6.596;2023-07-02T11:52:27;99367.29;;;32.68;13.36
74881;BME280;63427;49.654;6.596;2023-07-02T11:54:53;99362.24;;;33.09;14.18
74881;BME280;63427;49.654;6.596;2023-07-02T11:57:20;99356.75;;;32.48;14.40
74881;BME280;63427;49.654;6.596;2023-07-02T11:59:44;99359.14;;;32.76;14.33
74881;BME280;63427;49.654;6.596;2023-07-02T12:02:10;99357.58;;;32.67;14.29
74881;BME280;63427;49.654;6.596;2023-07-02T12:04:35;99359.75;;;30.81;15.27
74881;BME280;63427;49.654;6.596;2023-07-02T12:07:01;99352.80;;;31.91;15.26
74881;BME280;63427;49.654;6.596;2023-07-02T12:09:26;99362.31;;;31.68;15.60
74881;BME280;63427;49.654;6.596;2023-07-02T12:11:52;99368.96;;;31.19;15.61
74881;BME280;63427;49.654;6.596;2023-07-02T12:14:17;99375.16;;;30.86;15.98
74881;BME280;63427;49.654;6.596;2023-07-02T12:16:49;99377.40;;;31.30;15.86
74881;BME280;63427;49.654;6.596;2023-07-02T12:19:08;99380.02;;;31.24;15.85
74881;BME280;63427;49.654;6.596;2023-07-02T12:21:33;99382.94;;;30.51;16.13
74881;BME280;63427;49.654;6.596;2023-07-02T12:23:59;99383.53;;;31.09;15.92
74881;BME280;63427;49.654;6.596;2023-07-02T12:26:24;99379.38;;;30.42;16.14
74881;BME280;63427;49.654;6.596;2023-07-02T12:28:49;99377.46;;;31.18;15.43
74881;BME280;63427;49.654;6.596;2023-07-02T12:31:15;99371.47;;;32.07;15.26
74881;BME280;63427;49.654;6.596;2023-07-02T12:33:40;99369.39;;;30.72;15.02
74881;BME280;63427;49.654;6.596;2023-07-02T12:36:06;99366.92;;;30.96;15.18
74881;BME280;63427;49.654;6.596;2023-07-02T12:38:31;99370.31;;;28.73;16.73
74881;BME280;63427;49.654;6.596;2023-07-02T12:40:57;99363.99;;;30.39;15.98
74881;BME280;63427;49.654;6.596;2023-07-02T12:43:23;99365.44;;;30.06;15.88
74881;BME280;63427;49.654;6.596;2023-07-02T12:45:48;99361.15;;;31.09;16.07
74881;BME280;63427;49.654;6.596;2023-07-02T12:48:13;99363.76;;;31.70;15.91
74881;BME280;63427;49.654;6.596;2023-07-02T12:50:39;99354.97;;;30.78;15.77
74881;BME280;63427;49.654;6.596;2023-07-02T12:53:04;99351.50;;;30.93;14.85
74881;BME280;63427;49.654;6.596;2023-07-02T12:55:29;99353.61;;;31.36;14.40
74881;BME280;63427;49.654;6.596;2023-07-02T12:57:55;99359.35;;;31.76;14.73
74881;BME280;63427;49.654;6.596;2023-07-02T13:00:19;99359.86;;;32.15;15.18
74881;BME280;63427;49.654;6.596;2023-07-02T13:02:45;99354.62;;;32.75;14.21
74881;BME280;63427;49.654;6.596;2023-07-02T13:05:16;99353.81;;;32.63;14.63
74881;BME280;63427;49.654;6.596;2023-07-02T13:07:36;99351.26;;;31.86;14.18
74881;BME280;63427;49.654;6.596;2023-07-02T13:10:01;99356.74;;;32.37;14.42
74881;BME280;63427;49.654;6.596;2023-07-02T13:12:26;99360.28;;;32.50;13.69
74881;BME280;63427;49.654;6.596;2023-07-02T13:14:51;99355.49;;;32.42;13.73
74881;BME280;63427;49.654;6.596;2023-07-02T13:17:17;99361.25;;;32.11;14.71
74881;BME280;63427;49.654;6.596;2023-07-02T13:19:41;99352.33;;;32.57;14.25
74881;BME280;63427;49.654;6.596;2023-07-02T13:22:07;99355.35;;;32.56;14.36
74881;BME280;63427;49.654;6.596;2023-07-02T13:24:33;99355.54;;;31.70;13.59
74881;BME280;63427;49.654;6.596;2023-07-02T13:26:59;99361.11;;;31.61;14.09
74881;BME280;63427;49.654;6.596;2023-07-02T13:29:29;99363.75;;;31.80;14.86
74881;BME280;63427;49.654;6.596;2023-07-02T13:31:50;99359.89;;;31.52;14.86